Time;durP1;ratioP1;P1;durP2;ratioP2;P2;SDS_P1;SDS_P2;PMS_P1;PMS_P2;Temp;Humidity;BMP_temperature;BMP_pressure;BME280_temperature;BME280_humidity;BME280_pressure;Samples;Min_cycle;Max_cycle;Signal;HPM_P1;HPM_P2
2023/05/11 00:01:41;;;;;;;14.17;12.77;;;16.30;99.90;;;;;;5051313;28;20518;-78
2023/05/11 00:04:07;;;;;;;13.60;12.20;;;16.30;99.90;;;;;;5052022;28;20173;-76
2023/05/11 00:06:33;;;;;;;14.00;12.60;;;16.30;99.90;;;;;;5050791;28;20503;-77
2023/05/11 00:08:59;;;;;;;13.93;12.43;;;16.20;99.90;;;;;;5050608;28;20954;-76
2023/05/11 00:11:25;;;;;;;14.10;12.73;;;16.00;99.90;;;;;;5050040;28;20284;-76
2023/05/11 00:13:50;;;;;;;13.70;12.30;;;15.90;99.90;;;;;;5051735;28;20204;-76
2023/05/11 00:16:16;;;;;;;13.03;11.57;;;15.90;99.90;;;;;;5048737;28;20211;-76
2023/05/11 00:18:42;;;;;;;12.90;11.70;;;15.90;99.90;;;;;;5013267;28;20300;-77
2023/05/11 00:21:08;;;;;;;14.90;13.40;;;16.00;99.90;;;;;;5031171;28;20183;-76
2023/05/11 00:23:33;;;;;;;13.00;11.80;;;15.90;99.90;;;;;;5049135;28;20189;-76
2023/05/11 00:25:59;;;;;;;13.07;11.87;;;16.00;99.90;;;;;;5033150;28;20189;-77
2023/05/11 00:28:25;;;;;;;13.47;12.17;;;16.00;99.90;;;;;;5051036;28;20211;-76
2023/05/11 00:30:58;;;;;;;13.03;11.73;;;16.00;99.90;;;;;;5051021;28;20185;-76
2023/05/11 00:33:23;;;;;;;13.93;12.53;;;16.00;99.90;;;;;;5031349;28;20701;-76
2023/05/11 00:35:50;;;;;;;13.57;12.27;;;16.10;99.90;;;;;;5054671;28;20423;-76
2023/05/11 00:38:15;;;;;;;12.23;11.03;;;16.10;99.90;;;;;;5054138;28;20235;-77
2023/05/11 00:40:41;;;;;;;13.23;11.97;;;16.10;99.90;;;;;;5054613;28;20931;-78
2023/05/11 00:43:07;;;;;;;12.70;11.40;;;16.10;99.90;;;;;;5052831;28;20184;-77
2023/05/11 00:45:34;;;;;;;12.67;11.47;;;16.10;99.90;;;;;;5055277;28;20174;-77
2023/05/11 00:48:00;;;;;;;13.90;12.13;;;16.10;99.90;;;;;;5036572;28;20580;-78
2023/05/11 00:50:26;;;;;;;14.50;13.00;;;15.90;99.90;;;;;;5054101;28;20446;-78
2023/05/11 00:52:53;;;;;;;13.20;11.90;;;15.90;99.90;;;;;;5055053;28;20482;-77
2023/05/11 00:55:22;;;;;;;15.00;13.20;;;16.00;99.90;;;;;;5042560;28;21012;-78
2023/05/11 00:57:48;;;;;;;14.40;12.93;;;16.00;99.90;;;;;;5039671;28;20427;-78
2023/05/11 01:00:14;;;;;;;13.20;11.90;;;16.00;99.90;;;;;;5034375;28;20848;-77
2023/05/11 01:02:40;;;;;;;15.80;13.80;;;16.00;99.90;;;;;;5035357;28;20505;-77
2023/05/11 01:05:07;;;;;;;14.00;12.60;;;16.10;99.90;;;;;;5046189;28;20494;-77
2023/05/11 01:07:39;;;;;;;14.23;12.63;;;16.10;99.90;;;;;;5053454;28;20450;-77
2023/05/11 01:10:13;;;;;;;14.17;11.93;;;16.10;99.90;;;;;;5053230;28;20424;-77
2023/05/11 01:13:07;;;;;;;14.53;13.00;;;16.10;99.90;;;;;;5035037;28;20441;-78
2023/05/11 01:15:47;;;;;;;13.77;12.37;;;16.10;99.90;;;;;;5050828;28;20945;-77
2023/05/11 01:18:27;;;;;;;13.70;12.30;;;16.10;99.90;;;;;;5028968;28;20805;-76
2023/05/11 01:20:58;;;;;;;14.30;12.80;;;16.10;99.90;;;;;;5042177;28;20439;-78
2023/05/11 01:23:41;;;;;;;15.77;14.03;;;16.10;99.90;;;;;;5052506;28;20432;-78
2023/05/11 01:26:33;;;;;;;14.30;12.90;;;16.10;99.90;;;;;;5053945;28;20427;-78
2023/05/11 01:29:28;;;;;;;15.00;13.40;;;16.10;99.90;;;;;;5050920;28;20439;-78
2023/05/11 01:31:57;;;;;;;16.47;14.73;;;16.10;99.90;;;;;;5053583;28;20452;-78
2023/05/11 01:34:27;;;;;;;16.40;14.70;;;16.10;99.90;;;;;;5053886;28;20491;-78
2023/05/11 01:37:26;;;;;;;18.13;14.57;;;16.10;99.90;;;;;;5052746;28;20452;-78
2023/05/11 01:39:56;;;;;;;18.80;16.40;;;16.10;99.90;;;;;;4998480;28;20523;-78
2023/05/11 01:42:31;;;;;;;16.40;14.80;;;16.10;99.90;;;;;;5053667;28;20890;-78
2023/05/11 01:44:58;;;;;;;16.10;14.40;;;16.10;99.90;;;;;;5034926;28;20558;-78
2023/05/11 01:47:27;;;;;;;18.20;15.40;;;16.10;99.90;;;;;;5041747;28;20427;-78
2023/05/11 01:49:54;;;;;;;16.77;14.97;;;16.10;99.90;;;;;;5040062;28;20412;-78
2023/05/11 01:52:24;;;;;;;18.53;16.53;;;16.10;99.90;;;;;;5054125;28;20490;-78
2023/05/11 01:54:53;;;;;;;16.50;14.73;;;16.10;99.90;;;;;;5053662;28;20428;-77
2023/05/11 01:57:20;;;;;;;16.30;14.70;;;16.10;99.90;;;;;;5052691;28;20775;-77
2023/05/11 01:59:49;;;;;;;17.23;15.40;;;16.20;99.90;;;;;;5053485;28;20448;-78
2023/05/11 02:02:17;;;;;;;18.13;15.53;;;16.20;99.90;;;;;;5053884;28;20440;-78
2023/05/11 02:04:43;;;;;;;19.17;15.20;;;16.20;99.90;;;;;;5052404;28;20768;-78
2023/05/11 02:07:12;;;;;;;17.30;15.60;;;16.20;99.90;;;;;;5053303;28;20443;-78
2023/05/11 02:09:39;;;;;;;16.93;15.17;;;16.20;99.90;;;;;;5054132;28;20813;-77
2023/05/11 02:12:06;;;;;;;17.70;15.90;;;16.20;99.90;;;;;;5017647;28;20865;-77
2023/05/11 02:14:35;;;;;;;17.70;15.80;;;16.20;99.90;;;;;;5052530;28;20477;-78
2023/05/11 02:17:05;;;;;;;17.90;16.10;;;16.20;99.90;;;;;;5052303;28;20908;-77
2023/05/11 02:19:33;;;;;;;17.20;15.57;;;16.20;99.90;;;;;;5053722;28;20395;-77
2023/05/11 02:22:01;;;;;;;18.67;16.53;;;16.20;99.90;;;;;;5053628;28;20436;-78
2023/05/11 02:24:29;;;;;;;19.00;16.20;;;16.20;99.90;;;;;;5025893;28;20475;-77
2023/05/11 02:26:55;;;;;;;17.97;16.03;;;16.20;99.90;;;;;;5035488;28;20405;-78
2023/05/11 02:29:21;;;;;;;19.10;17.10;;;16.20;99.90;;;;;;5053476;28;20746;-77
2023/05/11 02:31:51;;;;;;;17.20;15.40;;;16.20;99.90;;;;;;5039297;28;20489;-78
2023/05/11 02:34:23;;;;;;;21.67;17.57;;;16.20;99.90;;;;;;5018554;28;20725;-78
2023/05/11 02:36:52;;;;;;;18.23;16.40;;;16.20;99.90;;;;;;5034979;28;20394;-77
2023/05/11 02:39:22;;;;;;;17.60;15.73;;;16.20;99.90;;;;;;5033738;28;20817;-77
2023/05/11 02:41:56;;;;;;;19.83;16.73;;;16.20;99.90;;;;;;5052786;28;20420;-78
2023/05/11 02:44:26;;;;;;;18.23;16.50;;;16.20;99.90;;;;;;5052084;28;20555;-78
2023/05/11 02:46:53;;;;;;;21.17;17.37;;;16.20;99.90;;;;;;5052584;28;20753;-78
2023/05/11 02:49:22;;;;;;;20.47;17.63;;;16.10;99.90;;;;;;5053093;28;20430;-78
2023/05/11 02:51:49;;;;;;;20.17;17.57;;;16.10;99.90;;;;;;5051953;28;20540;-78
2023/05/11 02:54:16;;;;;;;19.70;17.60;;;16.10;99.90;;;;;;5051903;28;20506;-77
2023/05/11 02:56:42;;;;;;;19.90;17.13;;;16.10;99.90;;;;;;5053083;28;20400;-78
2023/05/11 02:59:09;;;;;;;21.07;17.23;;;16.10;99.90;;;;;;5050430;28;20419;-78
2023/05/11 03:01:35;;;;;;;18.87;16.77;;;16.10;99.90;;;;;;5027916;28;20542;-78
2023/05/11 03:04:04;;;;;;;23.97;18.07;;;16.10;99.90;;;;;;5050032;28;20503;-78
2023/05/11 03:06:32;;;;;;;20.70;18.30;;;16.10;99.90;;;;;;5050933;28;20423;-78
2023/05/11 03:08:58;;;;;;;20.97;17.97;;;16.10;99.90;;;;;;5051008;28;20434;-78
2023/05/11 03:11:24;;;;;;;20.27;17.97;;;16.10;99.90;;;;;;5051573;28;20474;-80
2023/05/11 03:13:51;;;;;;;21.67;18.60;;;16.10;99.90;;;;;;5048950;28;20837;-77
2023/05/11 03:16:18;;;;;;;21.70;19.00;;;16.10;99.90;;;;;;5014850;28;20397;-79
2023/05/11 03:18:44;;;;;;;21.07;18.50;;;16.10;99.90;;;;;;5044876;28;20469;-78
2023/05/11 03:21:11;;;;;;;21.43;18.10;;;16.10;99.90;;;;;;5050134;28;20447;-77
2023/05/11 03:23:40;;;;;;;22.93;19.10;;;16.10;99.90;;;;;;5050631;28;20423;-78
2023/05/11 03:26:06;;;;;;;21.13;17.60;;;16.10;99.90;;;;;;5049955;28;20454;-77
2023/05/11 03:28:33;;;;;;;18.47;16.37;;;16.10;99.90;;;;;;5051565;28;20905;-78
2023/05/11 03:30:59;;;;;;;23.00;19.23;;;16.10;99.90;;;;;;5051435;28;20420;-77
2023/05/11 03:33:25;;;;;;;20.43;18.27;;;16.10;99.90;;;;;;5050542;28;20462;-78
2023/05/11 03:35:52;;;;;;;23.77;19.27;;;16.10;99.90;;;;;;5050365;28;20424;-79
2023/05/11 03:38:23;;;;;;;18.87;16.87;;;16.10;99.90;;;;;;5039019;28;20419;-80
2023/05/11 03:40:51;;;;;;;25.37;20.37;;;16.20;99.90;;;;;;5025794;28;20503;-80
2023/05/11 03:43:19;;;;;;;21.17;18.97;;;16.20;99.90;;;;;;5043676;28;20452;-79
2023/05/11 03:45:47;;;;;;;22.47;19.50;;;16.20;99.90;;;;;;5034337;28;20459;-79
2023/05/11 03:48:15;;;;;;;27.83;22.03;;;16.20;99.90;;;;;;5045624;28;21003;-79
2023/05/11 03:50:42;;;;;;;24.03;20.00;;;16.20;99.90;;;;;;5031626;28;20467;-80
2023/05/11 03:53:07;;;;;;;24.53;19.90;;;16.10;99.90;;;;;;5019997;28;20959;-80
2023/05/11 03:55:34;;;;;;;22.30;18.13;;;16.00;99.90;;;;;;5038157;28;20481;-79
2023/05/11 03:58:00;;;;;;;24.57;18.47;;;16.00;99.90;;;;;;5050472;28;20177;-79
2023/05/11 04:00:25;;;;;;;21.80;18.30;;;16.00;99.90;;;;;;5036259;28;20752;-79
2023/05/11 04:02:53;;;;;;;23.13;19.93;;;16.10;99.90;;;;;;5005936;28;20540;-79
2023/05/11 04:05:19;;;;;;;22.00;18.03;;;16.20;99.90;;;;;;5036527;28;20421;-79
2023/05/11 04:07:45;;;;;;;22.40;17.80;;;16.20;99.90;;;;;;5053285;28;20478;-78
2023/05/11 04:10:11;;;;;;;22.87;18.23;;;16.30;99.90;;;;;;5055921;28;20424;-79
2023/05/11 04:12:36;;;;;;;22.77;19.37;;;16.30;99.90;;;;;;5054889;28;20456;-79
2023/05/11 04:15:03;;;;;;;24.33;19.77;;;16.40;99.90;;;;;;5055544;28;20477;-79
2023/05/11 04:17:29;;;;;;;23.87;20.03;;;16.50;99.90;;;;;;5039717;28;20173;-79
2023/05/11 04:19:55;;;;;;;23.20;19.43;;;16.50;99.90;;;;;;5051548;28;20420;-79
2023/05/11 04:22:21;;;;;;;22.20;19.00;;;16.50;99.90;;;;;;5020510;28;20805;-79
2023/05/11 04:24:48;;;;;;;23.70;19.63;;;16.50;99.90;;;;;;5053799;28;20181;-79
2023/05/11 04:27:15;;;;;;;26.47;19.53;;;16.60;99.90;;;;;;5045966;28;20413;-78
2023/05/11 04:29:41;;;;;;;24.63;19.60;;;16.60;99.90;;;;;;5036335;28;20603;-78
2023/05/11 04:32:09;;;;;;;27.03;18.13;;;16.60;99.90;;;;;;5037370;28;21052;-78
2023/05/11 04:34:34;;;;;;;21.60;17.77;;;16.60;99.90;;;;;;5053776;28;20800;-78
2023/05/11 04:37:05;;;;;;;25.50;18.53;;;16.70;99.90;;;;;;5037964;28;20499;-79
2023/05/11 04:39:32;;;;;;;25.90;19.87;;;16.70;99.90;;;;;;5036092;28;20212;-79
2023/05/11 04:41:59;;;;;;;24.70;19.87;;;16.70;99.90;;;;;;5029643;28;20439;-79
2023/05/11 04:44:25;;;;;;;23.53;18.70;;;16.70;99.90;;;;;;5017044;28;20908;-79
2023/05/11 04:46:54;;;;;;;26.20;19.33;;;16.70;99.90;;;;;;5035074;28;20430;-79
2023/05/11 04:49:21;;;;;;;25.63;21.80;;;16.80;99.90;;;;;;5053693;28;20649;-79
2023/05/11 04:51:46;;;;;;;25.67;19.13;;;16.80;99.90;;;;;;5053931;28;20486;-79
2023/05/11 04:54:12;;;;;;;25.67;19.80;;;16.80;99.90;;;;;;5051702;28;20423;-80
2023/05/11 04:56:39;;;;;;;23.10;18.87;;;16.80;99.90;;;;;;5025970;28;20190;-79
2023/05/11 04:59:08;;;;;;;21.50;17.53;;;16.80;99.90;;;;;;5041910;28;20203;-79
2023/05/11 05:01:34;;;;;;;23.57;17.77;;;16.80;99.90;;;;;;5036911;28;20413;-79
2023/05/11 05:04:00;;;;;;;22.53;19.27;;;16.80;99.90;;;;;;5035215;28;20409;-79
2023/05/11 05:06:26;;;;;;;21.87;18.23;;;16.80;99.90;;;;;;5000923;28;20597;-79
2023/05/11 05:08:52;;;;;;;22.40;18.30;;;16.80;99.90;;;;;;5016819;28;20528;-79
2023/05/11 05:11:18;;;;;;;22.47;17.90;;;16.80;99.90;;;;;;5035612;28;20233;-79
2023/05/11 05:13:44;;;;;;;20.33;17.70;;;16.80;99.90;;;;;;5050637;28;20809;-79
2023/05/11 05:16:10;;;;;;;21.57;18.37;;;16.80;99.90;;;;;;5053014;28;20479;-79
2023/05/11 05:18:36;;;;;;;22.57;18.70;;;16.80;99.90;;;;;;5054720;28;20197;-79
2023/05/11 05:21:01;;;;;;;22.17;18.00;;;16.80;99.90;;;;;;5053095;28;20197;-78
2023/05/11 05:23:27;;;;;;;22.07;18.13;;;16.90;99.90;;;;;;5053196;28;20185;-78
2023/05/11 05:25:53;;;;;;;23.97;18.97;;;16.90;99.90;;;;;;5052982;28;20420;-78
2023/05/11 05:28:19;;;;;;;24.23;18.90;;;16.90;99.90;;;;;;5054110;28;20412;-78
2023/05/11 05:30:45;;;;;;;23.10;20.70;;;16.90;99.90;;;;;;5053835;28;20166;-78
2023/05/11 05:33:11;;;;;;;21.23;18.87;;;16.90;99.90;;;;;;5053774;28;20464;-78
2023/05/11 05:35:36;;;;;;;24.40;21.67;;;16.90;99.90;;;;;;5048737;28;20173;-78
2023/05/11 05:38:02;;;;;;;23.93;20.27;;;16.90;99.90;;;;;;5035983;28;20178;-78
2023/05/11 05:40:28;;;;;;;26.30;22.10;;;16.90;99.90;;;;;;5046815;28;20710;-78
2023/05/11 05:42:54;;;;;;;25.37;21.20;;;16.90;99.90;;;;;;5017068;28;20553;-78
2023/05/11 05:45:19;;;;;;;23.77;20.77;;;16.90;99.90;;;;;;5037346;28;20543;-78
2023/05/11 05:47:47;;;;;;;22.53;19.60;;;16.90;99.90;;;;;;5046641;28;20389;-78
2023/05/11 05:50:13;;;;;;;23.67;19.73;;;16.90;99.90;;;;;;5035139;28;20531;-78
2023/05/11 05:52:39;;;;;;;22.50;19.27;;;16.90;99.90;;;;;;5050257;28;20483;-79
2023/05/11 05:55:05;;;;;;;24.30;20.50;;;17.00;99.90;;;;;;5041901;28;20190;-80
2023/05/11 05:57:31;;;;;;;21.53;18.57;;;17.00;99.90;;;;;;5049889;28;20256;-80
2023/05/11 05:59:57;;;;;;;23.90;19.93;;;17.20;99.90;;;;;;5048994;28;20507;-76
2023/05/11 06:02:22;;;;;;;22.07;19.50;;;17.40;99.90;;;;;;5053400;28;20438;-76
2023/05/11 06:04:48;;;;;;;22.77;20.37;;;17.50;99.90;;;;;;5046582;28;20274;-77
2023/05/11 06:07:14;;;;;;;25.00;19.87;;;17.50;99.90;;;;;;5034510;28;20174;-77
2023/05/11 06:09:40;;;;;;;24.17;21.13;;;17.40;99.90;;;;;;5051290;28;20230;-77
2023/05/11 06:12:06;;;;;;;22.97;20.47;;;17.30;99.90;;;;;;5041066;28;20208;-78
2023/05/11 06:14:31;;;;;;;23.37;20.67;;;17.30;99.90;;;;;;5037013;28;20174;-77
2023/05/11 06:16:57;;;;;;;22.43;20.03;;;17.20;99.90;;;;;;5047981;28;20939;-77
2023/05/11 06:19:23;;;;;;;22.23;19.20;;;17.10;99.90;;;;;;5048929;28;20178;-79
2023/05/11 06:21:49;;;;;;;23.20;19.17;;;17.00;99.90;;;;;;5052485;28;20185;-78
2023/05/11 06:24:14;;;;;;;22.93;18.27;;;17.00;99.90;;;;;;5053279;28;20625;-78
2023/05/11 06:26:40;;;;;;;23.50;19.40;;;16.90;99.90;;;;;;5051567;28;20186;-78
2023/05/11 06:29:06;;;;;;;23.40;19.50;;;16.90;99.90;;;;;;5052678;28;20177;-79
2023/05/11 06:31:33;;;;;;;23.80;18.77;;;16.80;99.90;;;;;;5037226;28;20179;-78
2023/05/11 06:33:58;;;;;;;20.70;17.60;;;16.80;99.90;;;;;;5053066;28;20545;-77
2023/05/11 06:36:24;;;;;;;21.23;19.00;;;16.80;99.90;;;;;;5046533;28;20529;-79
2023/05/11 06:38:50;;;;;;;20.73;18.47;;;16.70;99.90;;;;;;5052083;28;20644;-79
2023/05/11 06:41:16;;;;;;;21.17;18.30;;;16.70;99.90;;;;;;5035585;28;20423;-79
2023/05/11 06:43:42;;;;;;;20.50;17.10;;;16.70;99.90;;;;;;5034988;28;20205;-79
2023/05/11 06:46:08;;;;;;;20.70;17.20;;;16.70;99.90;;;;;;5052293;28;20174;-79
2023/05/11 06:48:34;;;;;;;21.77;17.80;;;16.70;99.90;;;;;;5052353;28;20542;-78
2023/05/11 06:51:00;;;;;;;20.33;17.87;;;16.60;99.90;;;;;;5052136;28;20467;-77
2023/05/11 06:53:26;;;;;;;21.23;18.47;;;16.60;99.90;;;;;;5051137;28;20205;-79
2023/05/11 06:55:54;;;;;;;20.67;17.60;;;16.50;99.90;;;;;;5053108;28;20422;-79
2023/05/11 06:58:20;;;;;;;21.60;17.77;;;16.50;99.90;;;;;;5052943;28;20177;-79
2023/05/11 07:00:46;;;;;;;22.40;17.93;;;16.50;99.90;;;;;;5048106;28;20465;-78
2023/05/11 07:03:11;;;;;;;19.87;17.33;;;16.50;99.90;;;;;;5033994;28;20814;-79
2023/05/11 07:05:38;;;;;;;19.70;17.27;;;16.50;99.90;;;;;;5048860;28;20220;-79
2023/05/11 07:08:04;;;;;;;19.27;16.60;;;16.40;99.90;;;;;;5034821;28;20538;-79
2023/05/11 07:10:30;;;;;;;17.30;15.20;;;16.40;99.90;;;;;;5052855;28;20435;-78
2023/05/11 07:12:56;;;;;;;19.13;16.50;;;16.40;99.90;;;;;;5052261;28;20460;-79
2023/05/11 07:15:22;;;;;;;18.73;16.07;;;16.50;99.90;;;;;;5052500;28;20752;-79
2023/05/11 07:17:48;;;;;;;17.20;15.40;;;16.50;99.90;;;;;;5051564;28;20175;-79
2023/05/11 07:20:14;;;;;;;19.73;16.33;;;16.50;99.90;;;;;;5035606;28;20565;-76
2023/05/11 07:22:40;;;;;;;16.17;14.57;;;16.50;99.90;;;;;;5051150;28;20520;-76
2023/05/11 07:25:08;;;;;;;18.40;16.50;;;16.50;99.90;;;;;;5052110;28;20967;-76
2023/05/11 07:27:34;;;;;;;17.87;16.00;;;16.60;99.90;;;;;;5051583;28;20609;-76
2023/05/11 07:30:01;;;;;;;17.97;15.30;;;16.60;99.90;;;;;;5052847;28;20514;-76
2023/05/11 07:32:27;;;;;;;18.53;15.43;;;16.60;99.90;;;;;;5051244;28;20455;-78
2023/05/11 07:34:52;;;;;;;17.43;15.53;;;16.60;99.90;;;;;;5051683;28;20405;-78
2023/05/11 07:37:18;;;;;;;16.77;14.70;;;16.60;99.90;;;;;;5053334;28;20560;-79
2023/05/11 07:39:44;;;;;;;19.20;15.83;;;16.60;99.90;;;;;;5050957;28;20303;-78
2023/05/11 07:42:09;;;;;;;16.67;14.87;;;16.60;99.90;;;;;;5048583;28;20178;-77
2023/05/11 07:44:35;;;;;;;18.57;16.77;;;16.70;99.90;;;;;;5048077;28;20184;-78
2023/05/11 07:47:01;;;;;;;19.07;16.80;;;16.70;99.90;;;;;;5045384;28;20650;-78
2023/05/11 07:49:27;;;;;;;17.27;15.47;;;16.70;99.90;;;;;;5041247;28;20648;-78
2023/05/11 07:51:53;;;;;;;18.67;15.27;;;16.70;99.90;;;;;;5050927;28;22452;-78
2023/05/11 07:54:20;;;;;;;20.77;16.60;;;16.80;99.90;;;;;;5032524;28;20472;-78
2023/05/11 07:56:46;;;;;;;19.00;16.37;;;16.80;99.90;;;;;;5044499;28;20439;-78
2023/05/11 07:59:11;;;;;;;17.87;15.27;;;16.80;99.90;;;;;;5045736;28;20174;-78
2023/05/11 08:01:37;;;;;;;18.23;16.33;;;16.90;99.90;;;;;;5050123;28;20189;-77
2023/05/11 08:04:04;;;;;;;17.70;15.80;;;16.90;99.90;;;;;;5042731;28;20231;-78
2023/05/11 08:06:30;;;;;;;21.13;18.27;;;17.00;99.90;;;;;;5028882;28;20842;-78
2023/05/11 08:08:56;;;;;;;17.40;14.87;;;17.00;99.90;;;;;;5046744;28;20186;-79
2023/05/11 08:11:22;;;;;;;19.53;16.23;;;17.10;99.90;;;;;;5030165;28;20188;-78
2023/05/11 08:13:48;;;;;;;18.50;15.50;;;17.00;99.90;;;;;;5028551;28;20220;-78
2023/05/11 08:16:14;;;;;;;18.40;15.70;;;17.10;99.90;;;;;;5050644;28;20499;-78
2023/05/11 08:18:40;;;;;;;16.60;14.83;;;17.20;99.90;;;;;;5051607;28;20672;-78
2023/05/11 08:21:06;;;;;;;18.50;15.33;;;17.20;99.90;;;;;;5049486;28;20456;-78
2023/05/11 08:23:32;;;;;;;19.90;16.40;;;17.30;99.90;;;;;;5032095;28;20186;-78
2023/05/11 08:25:58;;;;;;;17.40;14.90;;;17.40;99.90;;;;;;5045733;28;20177;-78
2023/05/11 08:28:24;;;;;;;17.53;14.87;;;17.50;99.90;;;;;;5051218;28;20185;-78
2023/05/11 08:30:54;;;;;;;18.90;17.00;;;17.60;99.90;;;;;;5046474;28;20790;-78
2023/05/11 08:33:20;;;;;;;16.87;14.40;;;17.70;99.90;;;;;;5051156;28;20217;-78
2023/05/11 08:35:46;;;;;;;18.87;16.73;;;17.80;99.90;;;;;;5040809;28;20433;-78
2023/05/11 08:38:13;;;;;;;17.90;16.00;;;18.00;99.90;;;;;;5039958;28;20186;-78
2023/05/11 08:40:45;;;;;;;19.90;15.40;;;18.10;99.90;;;;;;5043929;28;20191;-78
2023/05/11 08:43:13;;;;;;;15.63;13.97;;;18.20;99.90;;;;;;5032079;28;20428;-78
2023/05/11 08:45:42;;;;;;;16.20;14.50;;;18.30;99.90;;;;;;5027922;28;20764;-78
2023/05/11 08:48:07;;;;;;;17.93;16.03;;;18.40;99.90;;;;;;5043702;28;20506;-79
2023/05/11 08:50:33;;;;;;;17.13;15.10;;;18.50;99.90;;;;;;5039775;28;20456;-76
2023/05/11 08:52:59;;;;;;;19.83;15.10;;;18.40;99.90;;;;;;5050238;28;20537;-76
2023/05/11 08:55:25;;;;;;;17.53;13.87;;;18.50;99.90;;;;;;5063369;28;20189;-79
2023/05/11 08:57:54;;;;;;;15.77;14.20;;;18.50;99.90;;;;;;5072867;28;20246;-78
2023/05/11 09:00:22;;;;;;;16.17;14.57;;;18.60;99.90;;;;;;5076028;28;20769;-76
2023/05/11 09:02:51;;;;;;;14.90;13.50;;;18.50;99.90;;;;;;5070677;28;20837;-78
2023/05/11 09:05:18;;;;;;;13.97;12.40;;;18.50;99.90;;;;;;5073150;28;20442;-78
2023/05/11 09:07:46;;;;;;;15.63;13.93;;;18.40;99.90;;;;;;5073695;28;20465;-78
2023/05/11 09:10:12;;;;;;;14.17;12.60;;;18.40;99.90;;;;;;5072609;28;20451;-79
2023/05/11 09:12:38;;;;;;;17.23;13.07;;;18.40;99.90;;;;;;5072883;28;20455;-78
2023/05/11 09:15:05;;;;;;;15.40;13.23;;;18.50;99.90;;;;;;5074207;28;20468;-79
2023/05/11 09:17:31;;;;;;;14.93;13.40;;;18.50;99.90;;;;;;5074024;28;20219;-78
2023/05/11 09:20:04;;;;;;;14.50;13.00;;;18.50;99.90;;;;;;5073551;28;20963;-78
2023/05/11 09:22:32;;;;;;;13.93;12.57;;;18.60;99.90;;;;;;5074809;28;20181;-78
2023/05/11 09:25:00;;;;;;;15.03;13.53;;;18.70;99.90;;;;;;5073433;28;20435;-78
2023/05/11 09:27:26;;;;;;;14.30;12.90;;;18.80;99.90;;;;;;5074031;28;20491;-78
2023/05/11 09:29:55;;;;;;;13.70;12.30;;;18.90;99.90;;;;;;5073152;28;20423;-78
2023/05/11 09:32:21;;;;;;;14.80;13.40;;;18.80;99.90;;;;;;5074677;28;20208;-78
2023/05/11 09:34:47;;;;;;;14.53;13.03;;;18.80;99.90;;;;;;5073437;28;20431;-78
2023/05/11 09:37:17;;;;;;;15.97;14.27;;;18.90;99.90;;;;;;5072979;28;20177;-78
2023/05/11 09:39:43;;;;;;;15.40;13.80;;;19.10;99.90;;;;;;5074051;28;20993;-78
2023/05/11 09:42:16;;;;;;;13.70;12.30;;;19.20;99.90;;;;;;5073759;28;20518;-78
2023/05/11 09:44:43;;;;;;;14.70;13.10;;;19.20;99.90;;;;;;5073086;28;20434;-78
2023/05/11 09:47:11;;;;;;;14.40;13.10;;;19.20;99.90;;;;;;5073034;28;20509;-77
2023/05/11 09:49:41;;;;;;;13.70;12.30;;;19.20;99.90;;;;;;5074760;28;20508;-78
2023/05/11 09:52:09;;;;;;;13.47;12.07;;;19.30;99.90;;;;;;5060273;28;20486;-78
2023/05/11 09:54:41;;;;;;;16.37;14.87;;;19.20;99.90;;;;;;5054048;28;20425;-74
2023/05/11 09:57:20;;;;;;;13.90;12.57;;;19.20;99.90;;;;;;5017364;28;20795;-78
2023/05/11 09:59:46;;;;;;;15.40;13.90;;;19.20;99.90;;;;;;5050001;28;20465;-78
2023/05/11 10:02:25;;;;;;;15.93;14.30;;;19.10;99.90;;;;;;5053297;28;20436;-78
2023/05/11 10:04:55;;;;;;;14.77;13.20;;;19.00;99.90;;;;;;5041510;28;20209;-78
2023/05/11 10:07:29;;;;;;;12.97;11.47;;;18.90;99.90;;;;;;5027475;28;20508;-77
2023/05/11 10:09:58;;;;;;;13.77;12.33;;;18.80;99.90;;;;;;5039963;28;20413;-77
2023/05/11 10:12:25;;;;;;;13.80;12.30;;;18.70;99.90;;;;;;5062948;28;20452;-78
2023/05/11 10:15:04;;;;;;;14.03;12.17;;;18.60;99.90;;;;;;5053777;28;20424;-78
2023/05/11 10:17:31;;;;;;;15.63;13.43;;;18.50;99.90;;;;;;5035660;28;20443;-78
2023/05/11 10:19:58;;;;;;;14.40;12.60;;;18.50;99.90;;;;;;5052708;28;20396;-78
2023/05/11 10:22:27;;;;;;;16.53;13.93;;;18.50;99.90;;;;;;5051064;28;20876;-78
2023/05/11 10:24:56;;;;;;;13.37;12.07;;;18.40;99.90;;;;;;5053789;28;20416;-78
2023/05/11 10:27:22;;;;;;;14.07;12.60;;;18.40;99.90;;;;;;5053072;28;20420;-78
2023/05/11 10:29:49;;;;;;;14.20;12.80;;;18.40;99.90;;;;;;5053566;28;20396;-78
2023/05/11 10:32:16;;;;;;;15.83;14.20;;;18.30;99.90;;;;;;5052423;28;20955;-78
2023/05/11 10:34:43;;;;;;;16.47;14.73;;;18.40;99.90;;;;;;5051762;28;20427;-78
2023/05/11 10:37:09;;;;;;;16.17;13.60;;;18.40;99.90;;;;;;5052952;28;20396;-78
2023/05/11 10:39:39;;;;;;;17.17;15.43;;;18.30;99.90;;;;;;5053734;28;20409;-79
2023/05/11 10:42:08;;;;;;;17.70;14.93;;;18.30;99.90;;;;;;5052395;28;20424;-79
2023/05/11 10:44:40;;;;;;;15.93;13.27;;;18.40;99.90;;;;;;5052536;28;22386;-78
2023/05/11 10:47:06;;;;;;;15.23;13.83;;;18.40;99.90;;;;;;5052665;28;20912;-79
2023/05/11 10:49:45;;;;;;;16.83;14.83;;;18.40;99.90;;;;;;5052886;28;20431;-79
2023/05/11 10:52:29;;;;;;;14.43;12.93;;;18.50;99.90;;;;;;5052420;28;20498;-78
2023/05/11 10:55:34;;;;;;;14.10;12.43;;;18.50;99.90;;;;;;5033581;28;20796;-78
2023/05/11 10:58:18;;;;;;;14.40;12.70;;;18.60;99.90;;;;;;5033976;28;20772;-77
2023/05/11 11:01:14;;;;;;;15.03;13.43;;;18.70;99.90;;;;;;5032963;28;20885;-78
2023/05/11 11:03:39;;;;;;;15.37;13.73;;;18.80;99.90;;;;;;5033565;28;20437;-79
2023/05/11 11:06:20;;;;;;;19.27;13.90;;;18.80;99.90;;;;;;5044416;28;20485;-78
2023/05/11 11:08:56;;;;;;;15.27;13.67;;;18.90;99.90;;;;;;5029489;28;20189;-78
2023/05/11 11:11:31;;;;;;;15.67;14.07;;;18.90;99.90;;;;;;5033298;28;20405;-78
2023/05/11 11:14:00;;;;;;;13.83;12.43;;;18.90;99.90;;;;;;5048290;28;20447;-79
2023/05/11 11:16:26;;;;;;;14.90;12.67;;;19.00;99.90;;;;;;5030924;28;21000;-79
2023/05/11 11:19:44;;;;;;;14.60;13.10;;;19.10;99.90;;;;;;5031965;28;20488;-78
2023/05/11 11:22:46;;;;;;;14.17;12.77;;;19.20;99.90;;;;;;5028868;28;20527;-79
2023/05/11 11:25:13;;;;;;;14.77;13.30;;;19.30;99.90;;;;;;4952727;29;20438;-78
2023/05/11 11:27:39;;;;;;;14.73;13.33;;;19.30;99.90;;;;;;4996068;28;20441;-79
2023/05/11 11:30:17;;;;;;;14.40;13.03;;;19.30;99.90;;;;;;5043543;28;20432;-78
2023/05/11 11:32:43;;;;;;;14.60;12.93;;;19.40;99.90;;;;;;5051718;28;20213;-78
2023/05/11 11:35:40;;;;;;;14.90;13.40;;;19.40;99.90;;;;;;5052290;28;20416;-78
2023/05/11 11:38:08;;;;;;;14.90;13.40;;;19.40;99.90;;;;;;5049866;28;20432;-79
2023/05/11 11:40:41;;;;;;;16.03;14.43;;;19.40;99.90;;;;;;5052506;28;20423;-79
2023/05/11 11:43:17;;;;;;;13.53;12.23;;;19.40;99.90;;;;;;5034655;28;20429;-78
2023/05/11 11:46:00;;;;;;;14.97;13.47;;;19.40;99.90;;;;;;5038466;28;20424;-78
2023/05/11 11:48:34;;;;;;;15.47;13.20;;;19.40;99.90;;;;;;5052642;28;20404;-78
2023/05/11 11:51:07;;;;;;;13.63;12.27;;;19.40;99.90;;;;;;5031722;28;20844;-78
2023/05/11 11:53:39;;;;;;;12.90;11.60;;;19.30;99.90;;;;;;5045569;28;20496;-78
2023/05/11 11:56:07;;;;;;;14.27;12.27;;;19.30;99.90;;;;;;5050924;28;20440;-78
2023/05/11 11:58:43;;;;;;;13.40;12.00;;;19.30;99.90;;;;;;5052388;28;20417;-78
2023/05/11 12:01:16;;;;;;;15.47;13.20;;;19.40;99.90;;;;;;5032906;28;20463;-78
2023/05/11 12:03:43;;;;;;;12.83;11.53;;;19.40;99.90;;;;;;5040434;28;20432;-78
2023/05/11 12:06:10;;;;;;;12.57;11.27;;;19.50;99.90;;;;;;5050768;28;20485;-78
2023/05/11 12:08:37;;;;;;;12.17;10.60;;;19.50;99.90;;;;;;5052381;28;20416;-78
2023/05/11 12:11:03;;;;;;;13.73;12.43;;;19.60;99.90;;;;;;5050676;28;20416;-78
2023/05/11 12:13:30;;;;;;;13.17;11.87;;;19.70;99.90;;;;;;5051282;28;20464;-78
2023/05/11 12:16:13;;;;;;;13.77;12.37;;;19.70;99.90;;;;;;5051793;28;20404;-78
2023/05/11 12:18:41;;;;;;;14.00;11.43;;;19.80;99.90;;;;;;5050769;28;20436;-78
2023/05/11 12:21:21;;;;;;;13.37;12.17;;;19.80;99.90;;;;;;5045885;28;20787;-76
2023/05/11 12:23:55;;;;;;;13.40;12.10;;;19.90;99.90;;;;;;5041955;28;20435;-77
2023/05/11 12:26:23;;;;;;;14.37;12.93;;;19.90;99.90;;;;;;5034474;28;20791;-78
2023/05/11 12:29:08;;;;;;;13.53;12.03;;;19.90;99.90;;;;;;5051151;28;20446;-77
2023/05/11 12:31:38;;;;;;;12.83;11.63;;;19.90;99.90;;;;;;5056214;28;20400;-78
2023/05/11 12:34:04;;;;;;;15.60;13.63;;;20.00;99.90;;;;;;5036181;28;20457;-78
2023/05/11 12:36:30;;;;;;;14.37;12.90;;;20.00;99.90;;;;;;5046500;28;20521;-78